Time;durP1;ratioP1;P1;durP2;ratioP2;P2;SDS_P1;SDS_P2;PMS_P1;PMS_P2;Temp;Humidity;BMP_temperature;BMP_pressure;BME280_temperature;BME280_humidity;BME280_pressure;Samples;Min_cycle;Max_cycle;Signal;HPM_P1;HPM_P2
2021/11/10 00:00:07;;;;;;;4.00;1.30;;;;;;;0.54;100.00;102508.77;1749193;81;21048;-84
2021/11/10 00:02:36;;;;;;;1.60;1.17;;;;;;;0.45;100.00;102507.50;1742820;81;21090;-84
2021/11/10 00:05:05;;;;;;;1.65;1.30;;;;;;;0.38;100.00;102510.52;1750050;82;21740;-83
2021/11/10 00:07:33;;;;;;;3.35;1.47;;;;;;;0.34;100.00;102519.50;1750480;82;21077;-83
2021/11/10 00:10:00;;;;;;;2.08;1.62;;;;;;;0.26;100.00;102530.63;1749888;81;21080;-82
2021/11/10 00:12:27;;;;;;;1.20;1.10;;;;;;;0.20;100.00;102527.20;1749969;82;21790;-82
2021/11/10 00:14:55;;;;;;;2.70;1.75;;;;;;;0.08;100.00;102534.03;1749856;81;22187;-83
2021/11/10 00:17:23;;;;;;;2.02;1.60;;;;;;;0.01;100.00;102546.41;1750101;81;21129;-82
2021/11/10 00:19:51;;;;;;;2.87;1.72;;;;;;;-0.10;100.00;102555.37;1750135;81;21022;-82
2021/11/10 00:22:18;;;;;;;2.00;1.30;;;;;;;-0.21;100.00;102546.41;1743844;81;21057;-82
2021/11/10 00:24:45;;;;;;;3.87;1.70;;;;;;;-0.29;100.00;102556.23;1750092;81;21555;-81
2021/11/10 00:27:12;;;;;;;4.75;1.47;;;;;;;-0.35;100.00;102554.51;1749900;81;21144;-82
2021/11/10 00:29:40;;;;;;;2.05;1.47;;;;;;;-0.43;100.00;102553.20;1750033;81;21046;-83
2021/11/10 00:32:07;;;;;;;3.00;1.60;;;;;;;-0.51;100.00;102551.92;1749645;81;21050;-83
2021/11/10 00:34:35;;;;;;;2.02;1.80;;;;;;;-0.55;100.00;102555.74;1748805;81;21090;-82
2021/11/10 00:37:02;;;;;;;1.85;1.70;;;;;;;-0.60;100.00;102554.89;1750245;81;21483;-83
2021/11/10 00:39:29;;;;;;;2.67;1.70;;;;;;;-0.66;100.00;102560.39;1750086;82;21098;-82
2021/11/10 00:41:56;;;;;;;2.95;1.30;;;;;;;-0.67;100.00;102562.96;1749699;81;21112;-82
2021/11/10 00:44:23;;;;;;;3.27;1.57;;;;;;;-0.72;100.00;102559.11;1749884;81;21061;-82
2021/11/10 00:46:50;;;;;;;1.98;1.52;;;;;;;-0.73;100.00;102561.23;1749984;82;21117;-82
2021/11/10 00:49:18;;;;;;;4.50;1.60;;;;;;;-0.78;100.00;102560.38;1742841;81;21010;-81
2021/11/10 00:51:46;;;;;;;4.33;2.17;;;;;;;-0.84;100.00;102561.20;1749334;82;21205;-82
2021/11/10 00:54:13;;;;;;;1.90;1.75;;;;;;;-0.87;100.00;102565.45;1742549;82;21006;-82
2021/11/10 00:56:41;;;;;;;3.72;1.82;;;;;;;-0.92;100.00;102574.81;1744454;81;21072;-82
2021/11/10 00:59:08;;;;;;;2.75;1.75;;;;;;;-0.96;100.00;102573.52;1739885;82;21081;-82
2021/11/10 01:01:35;;;;;;;3.17;1.77;;;;;;;-0.99;100.00;102585.44;1739563;81;21096;-82
2021/11/10 01:04:03;;;;;;;1.25;1.15;;;;;;;-1.04;100.00;102585.84;1740287;82;21905;-82
2021/11/10 01:06:34;;;;;;;3.65;1.77;;;;;;;-1.09;100.00;102601.16;1739957;81;21037;-83
2021/11/10 01:09:04;;;;;;;1.70;1.25;;;;;;;-1.13;100.00;102586.23;1740170;81;21062;-82
2021/11/10 01:11:34;;;;;;;2.87;1.57;;;;;;;-1.17;100.00;102598.98;1737902;81;21054;-82
2021/11/10 01:14:01;;;;;;;2.65;1.87;;;;;;;-1.21;100.00;102608.34;1737828;81;22206;-83
2021/11/10 01:16:28;;;;;;;1.98;1.60;;;;;;;-1.24;100.00;102605.75;1740720;81;21144;-83
2021/11/10 01:18:55;;;;;;;2.37;1.50;;;;;;;-1.25;100.00;102615.54;1740613;81;21057;-83
2021/11/10 01:21:24;;;;;;;3.65;1.75;;;;;;;-1.28;100.00;102621.49;1740411;81;21049;-83
2021/11/10 01:23:51;;;;;;;3.20;1.80;;;;;;;-1.28;100.00;102629.56;1713829;82;21067;-83
2021/11/10 01:26:19;;;;;;;3.27;1.72;;;;;;;-1.30;100.00;102628.28;1690017;81;21092;-83
2021/11/10 01:28:47;;;;;;;2.02;1.32;;;;;;;-1.34;100.00;102646.14;1737956;82;21548;-84
2021/11/10 01:31:15;;;;;;;2.92;1.85;;;;;;;-1.37;100.00;102631.65;1740533;81;21003;-84
2021/11/10 01:33:42;;;;;;;2.15;1.52;;;;;;;-1.38;100.00;102643.15;1740780;82;21015;-82
2021/11/10 01:36:10;;;;;;;2.52;1.70;;;;;;;-1.40;100.00;102644.83;1740304;81;21120;-83
2021/11/10 01:38:38;;;;;;;3.12;1.50;;;;;;;-1.43;100.00;102644.39;1740459;81;21066;-82
2021/11/10 01:41:05;;;;;;;2.08;1.52;;;;;;;-1.46;100.00;102650.75;1737899;81;21058;-82
2021/11/10 01:43:34;;;;;;;3.50;1.60;;;;;;;-1.51;100.00;102657.09;1740015;81;21058;-82
2021/11/10 01:46:01;;;;;;;2.35;1.50;;;;;;;-1.56;100.00;102661.76;1740690;82;21018;-82
2021/11/10 01:48:30;;;;;;;3.62;1.40;;;;;;;-1.62;100.00;102660.84;1741037;81;21047;-82
2021/11/10 01:50:59;;;;;;;2.15;1.37;;;;;;;-1.66;100.00;102669.74;1740587;81;21042;-82
2021/11/10 01:53:26;;;;;;;1.47;1.27;;;;;;;-1.71;100.00;102681.63;1737957;81;21085;-82
2021/11/10 01:55:53;;;;;;;3.12;1.20;;;;;;;-1.74;100.00;102683.73;1740851;81;21022;-82
2021/11/10 01:58:22;;;;;;;1.80;1.20;;;;;;;-1.76;100.00;102693.92;1740455;81;21085;-82
2021/11/10 02:00:51;;;;;;;1.90;1.20;;;;;;;-1.79;100.00;102692.63;1740761;81;21113;-83
2021/11/10 02:03:18;;;;;;;1.42;1.32;;;;;;;-1.82;100.00;102684.92;1740794;81;21507;-83
2021/11/10 02:05:52;;;;;;;5.20;1.50;;;;;;;-1.82;100.00;102693.02;1740520;81;21144;-83
2021/11/10 02:08:35;;;;;;;2.00;1.30;;;;;;;-1.85;100.00;102693.86;1709016;81;21038;-82
2021/11/10 02:11:04;;;;;;;2.62;1.67;;;;;;;-1.87;100.00;102692.98;1736576;82;20995;-83
2021/11/10 02:13:33;;;;;;;2.42;1.20;;;;;;;-1.90;100.00;102695.48;1740658;82;21049;-82
2021/11/10 02:16:01;;;;;;;5.37;1.70;;;;;;;-1.93;100.00;102701.42;1740747;81;21076;-83
2021/11/10 02:18:30;;;;;;;4.65;1.35;;;;;;;-1.95;100.00;102699.27;1740509;82;21178;-82
2021/11/10 02:20:59;;;;;;;2.83;1.10;;;;;;;-1.97;100.00;102700.09;1740211;81;21011;-83
2021/11/10 02:23:26;;;;;;;1.80;1.32;;;;;;;-1.99;100.00;102694.98;1740375;81;21002;-83
2021/11/10 02:25:58;;;;;;;1.85;1.60;;;;;;;-1.99;100.00;102701.36;1743335;80;21053;-83
2021/11/10 02:28:22;;;;;;;1.80;1.30;;;;;;;-2.02;100.00;102709.41;1728358;81;21073;-82
2021/11/10 02:30:49;;;;;;;2.35;1.47;;;;;;;-2.03;100.00;102711.52;1712588;82;21658;-82
2021/11/10 02:33:29;;;;;;;3.17;1.25;;;;;;;-2.08;100.00;102712.75;1712527;82;21551;-82
2021/11/10 02:36:04;;;;;;;2.90;1.55;;;;;;;-2.09;100.00;102727.22;1730005;82;21223;-82
2021/11/10 02:38:33;;;;;;;1.57;1.40;;;;;;;-2.11;100.00;102731.45;1728617;81;21022;-82
2021/11/10 02:41:03;;;;;;;1.82;1.60;;;;;;;-2.14;100.00;102736.94;1730713;81;21140;-82
2021/11/10 02:43:32;;;;;;;1.95;1.45;;;;;;;-2.19;100.00;102743.66;1726889;82;21157;-83
2021/11/10 02:46:01;;;;;;;2.80;1.60;;;;;;;-2.24;100.00;102752.13;1740349;82;21432;-82
2021/11/10 02:48:29;;;;;;;2.40;1.50;;;;;;;-2.27;100.00;102759.73;1740606;82;21622;-84
2021/11/10 02:50:56;;;;;;;2.87;1.10;;;;;;;-2.29;100.00;102765.27;1740591;81;21105;-84
2021/11/10 02:53:23;;;;;;;2.42;1.55;;;;;;;-2.30;100.00;102763.55;1740580;82;21101;-84
2021/11/10 02:55:52;;;;;;;2.58;1.50;;;;;;;-2.31;100.00;102768.61;1740982;82;21136;-84
2021/11/10 02:58:20;;;;;;;2.87;1.60;;;;;;;-2.33;100.00;102763.49;1740368;81;21519;-83
2021/11/10 03:00:47;;;;;;;2.35;1.30;;;;;;;-2.32;100.00;102768.20;1740610;82;21113;-82
2021/11/10 03:03:15;;;;;;;2.10;1.60;;;;;;;-2.35;100.00;102772.81;1740505;81;21551;-83
2021/11/10 03:05:47;;;;;;;1.55;1.17;;;;;;;-2.36;100.00;102776.20;1736704;81;21657;-82
2021/11/10 03:08:20;;;;;;;2.08;1.40;;;;;;;-2.38;100.00;102775.34;1713304;82;21827;-83
2021/11/10 03:10:51;;;;;;;2.00;1.05;;;;;;;-2.40;100.00;102780.84;1736801;82;21057;-82
2021/11/10 03:13:19;;;;;;;2.62;1.62;;;;;;;-2.43;100.00;102775.68;1685255;82;21042;-82
2021/11/10 03:15:48;;;;;;;3.25;1.60;;;;;;;-2.46;100.00;102785.86;1709228;82;21125;-83
2021/11/10 03:18:15;;;;;;;2.22;1.57;;;;;;;-2.49;100.00;102788.36;1740692;81;21033;-83
2021/11/10 03:20:44;;;;;;;4.03;1.50;;;;;;;-2.51;100.00;102793.85;1740742;82;21201;-82
2021/11/10 03:23:12;;;;;;;3.27;1.42;;;;;;;-2.52;100.00;102798.55;1713331;82;21019;-80
2021/11/10 03:25:40;;;;;;;2.75;1.55;;;;;;;-2.58;100.00;102798.88;1740574;81;21101;-81
2021/11/10 03:28:08;;;;;;;3.02;1.60;;;;;;;-2.58;100.00;102800.58;1740760;81;21050;-83
2021/11/10 03:30:35;;;;;;;3.27;1.80;;;;;;;-2.60;100.00;102796.70;1740422;81;21562;-82
2021/11/10 03:33:03;;;;;;;3.40;1.60;;;;;;;-2.61;100.00;102807.77;1740557;82;21145;-82
2021/11/10 03:35:31;;;;;;;2.20;1.65;;;;;;;-2.63;100.00;102812.38;1713280;82;21519;-81
2021/11/10 03:38:01;;;;;;;3.50;1.98;;;;;;;-2.68;100.00;102812.31;1713738;82;21010;-82
2021/11/10 03:40:30;;;;;;;4.40;2.45;;;;;;;-2.69;100.00;102822.10;1740284;81;21014;-83
2021/11/10 03:42:57;;;;;;;2.98;2.20;;;;;;;-2.71;100.00;102824.61;1740156;81;21073;-82
2021/11/10 03:45:26;;;;;;;6.70;2.70;;;;;;;-2.72;100.00;102834.80;1736314;81;21158;-82
2021/11/10 03:47:55;;;;;;;2.60;1.87;;;;;;;-2.74;100.00;102836.45;1740250;82;21010;-82
2021/11/10 03:50:24;;;;;;;3.25;2.17;;;;;;;-2.76;100.00;102839.39;1740564;81;22057;-83
2021/11/10 03:52:54;;;;;;;3.75;2.27;;;;;;;-2.77;100.00;102837.70;1740416;81;21022;-83
2021/11/10 03:55:23;;;;;;;6.15;2.15;;;;;;;-2.80;100.00;102837.64;1731295;82;21040;-82
2021/11/10 03:57:50;;;;;;;3.42;2.02;;;;;;;-2.83;100.00;102841.00;1698315;84;21153;-83
2021/11/10 04:00:17;;;;;;;3.27;1.87;;;;;;;-2.85;100.00;102845.20;1723423;82;21518;-85
2021/11/10 04:02:46;;;;;;;3.67;1.98;;;;;;;-2.88;100.00;102847.30;1750670;81;21070;-83
2021/11/10 04:05:16;;;;;;;3.50;2.20;;;;;;;-2.90;100.00;102850.23;1692147;84;20970;-82
2021/11/10 04:07:46;;;;;;;5.00;1.98;;;;;;;-2.93;100.00;102850.20;1745624;81;21040;-82
2021/11/10 04:10:14;;;;;;;3.12;1.90;;;;;;;-2.93;100.00;102858.24;1723661;83;21197;-82
2021/11/10 04:12:42;;;;;;;4.83;1.90;;;;;;;-2.96;100.00;102857.78;1755524;81;21038;-83
2021/11/10 04:15:10;;;;;;;2.90;2.00;;;;;;;-2.99;100.00;102865.80;1723529;83;21033;-82
2021/11/10 04:17:39;;;;;;;4.47;1.85;;;;;;;-3.00;100.00;102867.47;1755501;81;21080;-82
2021/11/10 04:20:09;;;;;;;3.45;2.15;;;;;;;-3.00;100.00;102870.02;1719220;83;21555;-82
2021/11/10 04:22:38;;;;;;;3.83;2.10;;;;;;;-3.03;100.00;102876.36;1755271;81;21139;-85
2021/11/10 04:25:07;;;;;;;5.55;2.10;;;;;;;-3.05;100.00;102878.89;1696085;83;21086;-82
2021/11/10 04:27:35;;;;;;;3.62;1.80;;;;;;;-3.05;100.00;102878.01;1750611;81;21344;-82
2021/11/10 04:30:04;;;;;;;3.65;1.92;;;;;;;-3.05;100.00;102889.48;1723669;83;21057;-82
2021/11/10 04:32:34;;;;;;;7.12;2.25;;;;;;;-3.06;100.00;102889.91;1755701;81;21096;-84
2021/11/10 04:35:03;;;;;;;8.75;2.30;;;;;;;-2.93;100.00;102889.72;1723916;82;21163;-82
2021/11/10 04:37:32;;;;;;;6.40;2.50;;;;;;;-2.78;100.00;102899.30;1750727;81;21068;-83
2021/11/10 04:40:01;;;;;;;6.37;3.35;;;;;;;-2.67;100.00;102893.11;1723895;83;21054;-81
2021/11/10 04:42:29;;;;;;;5.17;2.42;;;;;;;-2.69;100.00;102894.80;1750502;81;21014;-81
2021/11/10 04:45:00;;;;;;;4.40;2.70;;;;;;;-2.80;100.00;102903.95;1720478;83;21145;-80
2021/11/10 04:47:27;;;;;;;4.55;2.47;;;;;;;-2.89;100.00;102906.77;1754820;81;21037;-81
2021/11/10 04:49:55;;;;;;;5.78;2.87;;;;;;;-2.96;100.00;102911.33;1723497;82;21657;-81
2021/11/10 04:52:22;;;;;;;17.17;3.20;;;;;;;-3.02;100.00;102919.71;1724360;81;21026;-87
2021/11/10 04:54:50;;;;;;;4.05;2.67;;;;;;;-2.97;100.00;102921.08;1727120;81;21606;-81
2021/11/10 04:57:18;;;;;;;4.33;2.50;;;;;;;-2.87;100.00;102924.25;1722708;82;21072;-82
2021/11/10 04:59:46;;;;;;;4.85;2.72;;;;;;;-2.86;100.00;102925.97;1746753;80;21092;-82
2021/11/10 05:04:42;;;;;;;3.87;2.72;;;;;;;-3.00;100.00;102938.85;1759489;81;21058;-82
2021/11/10 05:07:12;;;;;;;6.40;3.20;;;;;;;-3.05;100.00;102947.72;1759618;81;21054;-82
2021/11/10 05:09:39;;;;;;;4.33;2.52;;;;;;;-3.07;100.00;102952.31;1749527;81;21100;-81
2021/11/10 05:12:10;;;;;;;6.08;2.30;;;;;;;-3.11;100.00;102958.20;1757665;81;21818;-80
2021/11/10 05:14:40;;;;;;;6.15;2.55;;;;;;;-3.12;100.00;102955.20;1761085;81;21050;-79
2021/11/10 05:17:08;;;;;;;3.37;2.40;;;;;;;-3.12;100.00;102957.75;1732971;81;20994;-81
2021/11/10 05:19:35;;;;;;;6.12;2.60;;;;;;;-3.11;100.00;102963.30;1735209;81;21491;-80
2021/11/10 05:22:02;;;;;;;5.00;2.45;;;;;;;-3.10;100.00;102967.57;1761018;80;20990;-80
2021/11/10 05:24:29;;;;;;;4.03;2.27;;;;;;;-3.10;100.00;102965.02;1731117;82;21150;-81
2021/11/10 05:26:56;;;;;;;4.45;2.45;;;;;;;-3.08;100.00;102979.91;1718101;83;21066;-81
2021/11/10 05:29:23;;;;;;;5.53;2.75;;;;;;;-3.06;100.00;102976.59;1716175;82;21009;-80
2021/11/10 05:31:51;;;;;;;5.90;2.67;;;;;;;-3.03;100.00;102977.05;1693431;84;21098;-82
2021/11/10 05:34:19;;;;;;;3.60;1.98;;;;;;;-2.99;100.00;102984.34;1681970;83;21684;-80
2021/11/10 05:36:46;;;;;;;7.37;2.92;;;;;;;-2.96;100.00;102991.64;1719644;82;21151;-79
2021/11/10 05:39:13;;;;;;;5.25;2.45;;;;;;;-2.93;100.00;102995.53;1736100;81;21543;-81
2021/11/10 05:41:40;;;;;;;5.80;2.75;;;;;;;-2.91;100.00;102993.85;1746879;82;21124;-82
2021/11/10 05:44:07;;;;;;;5.03;2.90;;;;;;;-2.87;100.00;102994.38;1731116;82;21120;-82
2021/11/10 05:46:35;;;;;;;5.28;2.83;;;;;;;-2.83;100.00;102995.69;1731212;82;21455;-81
2021/11/10 05:49:02;;;;;;;4.55;3.00;;;;;;;-2.76;100.00;103001.34;1726274;81;21138;-81
2021/11/10 05:51:29;;;;;;;6.95;3.12;;;;;;;-2.73;100.00;103002.69;1691901;83;21032;-81
2021/11/10 05:53:57;;;;;;;4.65;2.42;;;;;;;-2.71;100.00;103010.81;1712492;82;21024;-81
2021/11/10 05:56:27;;;;;;;4.35;2.80;;;;;;;-2.65;100.00;103005.40;1712666;83;21111;-81
2021/11/10 05:58:57;;;;;;;4.42;2.72;;;;;;;-2.61;100.00;103008.04;1675163;84;21049;-84
2021/11/10 06:01:25;;;;;;;4.78;2.70;;;;;;;-2.56;100.00;103015.75;1696484;82;21849;-80
2021/11/10 06:03:53;;;;;;;4.65;2.62;;;;;;;-2.51;100.00;103014.16;1721258;81;21131;-82
2021/11/10 06:06:29;;;;;;;3.37;2.20;;;;;;;-2.46;100.00;103024.45;1720877;82;21584;-81
2021/11/10 06:08:57;;;;;;;4.80;2.58;;;;;;;-2.42;100.00;103030.04;1718166;83;21007;-82
2021/11/10 06:11:24;;;;;;;5.37;2.70;;;;;;;-2.38;100.00;103032.67;1721152;82;21055;-82
2021/11/10 06:13:51;;;;;;;5.45;2.83;;;;;;;-2.34;100.00;103034.02;1720992;82;21149;-84
2021/11/10 06:16:18;;;;;;;4.92;2.62;;;;;;;-2.30;100.00;103028.12;1723580;81;21602;-81
2021/11/10 06:18:45;;;;;;;4.95;2.37;;;;;;;-2.27;100.00;103031.58;1698138;84;21061;-81
2021/11/10 06:21:13;;;;;;;4.55;2.50;;;;;;;-2.23;100.00;103032.49;1713055;83;21499;-81
2021/11/10 06:23:41;;;;;;;8.28;3.35;;;;;;;-2.19;100.00;103024.06;1731563;82;21133;-81
2021/11/10 06:26:08;;;;;;;5.83;2.85;;;;;;;-2.13;100.00;103034.81;1750565;80;21625;-82
2021/11/10 06:28:36;;;;;;;5.22;2.42;;;;;;;-2.08;100.00;103034.45;1706674;82;21046;-81
2021/11/10 06:31:03;;;;;;;4.62;2.87;;;;;;;-2.07;100.00;103035.75;1738288;80;21606;-81
2021/11/10 06:33:32;;;;;;;4.85;2.37;;;;;;;-2.02;100.00;103045.20;1689241;84;21055;-83
2021/11/10 06:35:59;;;;;;;3.33;2.60;;;;;;;-1.99;100.00;103041.39;1714555;83;21093;-83
2021/11/10 06:38:26;;;;;;;4.42;2.52;;;;;;;-1.95;100.00;103041.91;1719543;83;21148;-83
2021/11/10 06:40:55;;;;;;;2.25;2.05;;;;;;;-1.92;100.00;103044.48;1719422;83;21027;-81
2021/11/10 06:43:25;;;;;;;3.62;2.17;;;;;;;-1.87;100.00;103042.89;1692502;83;21088;-82
2021/11/10 06:45:53;;;;;;;2.70;1.82;;;;;;;-1.80;100.00;103047.26;1719793;83;21014;-81
2021/11/10 06:48:20;;;;;;;4.62;1.92;;;;;;;-1.73;100.00;103043.11;1692901;83;21593;-81
2021/11/10 06:50:47;;;;;;;4.70;2.62;;;;;;;-1.67;100.00;103041.92;1689667;84;21160;-81
2021/11/10 06:53:14;;;;;;;6.97;2.58;;;;;;;-1.59;100.00;103042.89;1697253;83;21114;-83
2021/11/10 06:55:41;;;;;;;4.42;2.50;;;;;;;-1.49;100.00;103048.14;1714503;82;21028;-85
2021/11/10 06:58:09;;;;;;;4.87;2.42;;;;;;;-1.33;100.00;103057.75;1718439;82;21026;-83
2021/11/10 07:00:36;;;;;;;6.83;2.50;;;;;;;-1.20;100.00;103054.06;1714442;83;21168;-85
2021/11/10 07:03:04;;;;;;;4.58;2.47;;;;;;;-1.12;100.00;103063.98;1714285;83;21112;-81
2021/11/10 07:05:35;;;;;;;6.03;2.60;;;;;;;-1.11;100.00;103058.88;1716340;82;21060;-83
2021/11/10 07:08:03;;;;;;;4.28;2.52;;;;;;;-1.10;100.00;103055.91;1689620;83;21129;-83
2021/11/10 07:10:32;;;;;;;4.28;2.67;;;;;;;-1.08;100.00;103060.61;1696479;83;21611;-81
2021/11/10 07:13:01;;;;;;;6.42;2.40;;;;;;;-1.07;100.00;103062.33;1719443;82;21026;-81
2021/11/10 07:15:27;;;;;;;4.95;2.65;;;;;;;-1.02;100.00;103072.62;1731403;82;21134;-80
2021/11/10 07:17:55;;;;;;;3.90;2.52;;;;;;;-0.96;100.00;103062.45;1713698;83;21066;-82
2021/11/10 07:20:22;;;;;;;5.20;2.67;;;;;;;-0.90;100.00;103075.75;1713881;83;21563;-82
2021/11/10 07:22:51;;;;;;;2.87;2.42;;;;;;;-0.84;100.00;103073.30;1713456;83;21066;-82
2021/11/10 07:25:18;;;;;;;3.50;2.37;;;;;;;-0.77;100.00;103075.08;1714456;83;21019;-82
2021/11/10 07:27:45;;;;;;;10.13;2.80;;;;;;;-0.75;100.00;103073.81;1715237;83;21699;-83
2021/11/10 07:30:13;;;;;;;5.65;2.33;;;;;;;-0.75;100.00;103079.77;1712095;83;21002;-84
2021/11/10 07:32:41;;;;;;;4.95;2.60;;;;;;;-0.71;100.00;103079.39;1712271;83;21429;-82
2021/11/10 07:35:09;;;;;;;3.33;2.70;;;;;;;-0.74;100.00;103075.53;1711241;83;21094;-84
2021/11/10 07:37:41;;;;;;;3.67;2.87;;;;;;;-0.77;100.00;103080.20;1714498;83;21037;-82
2021/11/10 07:40:09;;;;;;;5.03;3.65;;;;;;;-0.75;100.00;103081.48;1713421;83;21138;-82
2021/11/10 07:42:37;;;;;;;4.50;3.12;;;;;;;-0.70;100.00;103085.83;1713637;83;21018;-81
2021/11/10 07:45:08;;;;;;;4.35;2.75;;;;;;;-0.66;100.00;103085.44;1714552;83;21010;-82
2021/11/10 07:47:46;;;;;;;4.55;2.90;;;;;;;-0.61;100.00;103079.09;1711483;83;21804;-81
2021/11/10 07:50:19;;;;;;;5.95;3.22;;;;;;;-0.52;100.00;103090.72;1714214;83;21069;-83
2021/11/10 07:52:48;;;;;;;4.40;2.75;;;;;;;-0.42;100.00;103096.36;1685634;83;21096;-82
2021/11/10 07:55:15;;;;;;;5.85;2.75;;;;;;;-0.33;100.00;103095.18;1712028;83;21014;-82
2021/11/10 07:57:43;;;;;;;3.75;2.67;;;;;;;-0.26;100.00;103099.08;1714688;83;21574;-81
2021/11/10 08:00:17;;;;;;;8.45;3.10;;;;;;;-0.20;100.00;103097.88;1722424;83;21018;-83
2021/11/10 08:02:46;;;;;;;4.97;2.67;;;;;;;-0.12;100.00;103091.09;1724179;83;21054;-81
2021/11/10 08:05:15;;;;;;;3.30;2.60;;;;;;;-0.05;100.00;103092.03;1724154;83;21496;-82
2021/11/10 08:07:43;;;;;;;3.10;2.77;;;;;;;0.01;100.00;103093.36;1723857;83;21058;-83
2021/11/10 08:10:13;;;;;;;4.42;2.95;;;;;;;0.02;100.00;103098.08;1723983;83;21124;-83
2021/11/10 08:12:41;;;;;;;3.92;2.77;;;;;;;-0.01;100.00;103098.48;1715822;83;21039;-82
2021/11/10 08:15:14;;;;;;;3.45;2.60;;;;;;;-0.03;100.00;103099.31;1694419;84;21559;-81
2021/11/10 08:17:43;;;;;;;6.28;2.83;;;;;;;-0.02;100.00;103098.03;1694358;83;21168;-82
2021/11/10 08:20:15;;;;;;;3.85;3.00;;;;;;;0.03;100.00;103092.95;1694411;84;21894;-81
2021/11/10 08:22:44;;;;;;;4.00;2.90;;;;;;;0.08;100.00;103099.41;1694480;83;21101;-82
2021/11/10 08:25:14;;;;;;;3.33;3.00;;;;;;;0.08;100.00;103095.56;1661878;84;21155;-82
2021/11/10 08:27:41;;;;;;;4.10;2.80;;;;;;;0.12;100.00;103108.84;1694406;83;21875;-82
2021/11/10 08:30:15;;;;;;;4.65;2.90;;;;;;;0.15;100.00;103107.17;1694623;84;21059;-83
2021/11/10 08:32:45;;;;;;;2.77;2.20;;;;;;;0.15;100.00;103106.30;1664531;84;21348;-83
2021/11/10 08:35:12;;;;;;;3.75;2.47;;;;;;;0.14;100.00;103105.45;1694638;83;21057;-82
2021/11/10 08:37:40;;;;;;;4.22;2.58;;;;;;;0.16;100.00;103100.33;1694550;84;21590;-83
2021/11/10 08:40:09;;;;;;;4.65;2.80;;;;;;;0.17;100.00;103098.20;1694788;84;21045;-82
2021/11/10 08:42:38;;;;;;;4.42;2.50;;;;;;;0.17;100.00;103098.20;1694515;83;21106;-82
2021/11/10 08:45:11;;;;;;;4.33;2.80;;;;;;;0.18;100.00;103102.48;1661928;83;21121;-82
2021/11/10 08:47:45;;;;;;;4.62;3.00;;;;;;;0.25;100.00;103094.00;1693553;84;21619;-82
2021/11/10 08:50:17;;;;;;;3.00;2.37;;;;;;;0.36;100.00;103099.64;1694507;84;21041;-81
2021/11/10 08:52:47;;;;;;;3.90;2.27;;;;;;;0.45;100.00;103098.41;1694794;83;21638;-82
2021/11/10 08:55:16;;;;;;;4.03;2.60;;;;;;;0.56;100.00;103103.63;1695154;84;21527;-82
2021/11/10 08:57:47;;;;;;;5.08;2.80;;;;;;;0.66;100.00;103097.70;1694626;84;21751;-83
2021/11/10 09:00:19;;;;;;;4.05;2.37;;;;;;;0.70;100.00;103097.28;1694675;84;21130;-82
2021/11/10 09:02:47;;;;;;;4.37;2.70;;;;;;;0.62;100.00;103095.53;1694613;84;21084;-81
2021/11/10 09:05:15;;;;;;;3.58;2.42;;;;;;;0.48;100.00;103098.88;1694912;84;21077;-82
2021/11/10 09:07:43;;;;;;;4.87;3.83;;;;;;;0.29;100.00;103094.88;1694560;84;21163;-81
2021/11/10 09:10:15;;;;;;;4.62;3.35;;;;;;;0.18;100.00;103093.52;1693935;84;21112;-81
2021/11/10 09:12:43;;;;;;;3.90;2.83;;;;;;;0.20;100.00;103101.21;1694887;84;21042;-82
2021/11/10 09:15:14;;;;;;;3.10;2.80;;;;;;;0.19;100.00;103102.05;1694545;84;21065;-83
2021/11/10 09:17:42;;;;;;;4.08;2.80;;;;;;;0.20;100.00;103093.09;1694764;84;21119;-83
2021/11/10 09:20:17;;;;;;;5.25;2.67;;;;;;;0.29;100.00;103101.29;1694588;84;21917;-82
2021/11/10 09:22:45;;;;;;;3.70;2.60;;;;;;;0.37;100.00;103099.64;1694529;83;21081;-82
2021/11/10 09:25:17;;;;;;;3.50;2.52;;;;;;;0.40;100.00;103097.09;1694593;84;21049;-82
2021/11/10 09:27:44;;;;;;;5.15;2.52;;;;;;;0.40;100.00;103093.67;1694731;84;21075;-81
2021/11/10 09:30:15;;;;;;;2.62;2.25;;;;;;;0.41;100.00;103092.83;1694513;83;21530;-82
2021/11/10 09:32:44;;;;;;;3.20;2.60;;;;;;;0.48;100.00;103094.59;1694637;83;21192;-82
2021/11/10 09:35:13;;;;;;;3.00;2.30;;;;;;;0.54;100.00;103089.94;1639749;84;21049;-84
2021/11/10 09:37:43;;;;;;;2.85;2.20;;;;;;;0.54;100.00;103098.47;1694135;83;21382;-83
2021/11/10 09:40:15;;;;;;;3.95;2.30;;;;;;;0.54;100.00;103098.47;1664191;84;21172;-82
2021/11/10 09:42:43;;;;;;;;;;;;;;;0.59;100.00;103091.69;1663863;84;21613;-82
2021/11/10 09:45:15;;;;;;;4.12;2.83;;;;;;;0.71;100.00;103090.91;1694116;83;21173;-81
2021/11/10 09:47:44;;;;;;;4.45;2.80;;;;;;;0.85;100.00;103089.67;1658812;84;21586;-81
2021/11/10 09:50:16;;;;;;;5.83;2.90;;;;;;;0.96;100.00;103091.45;1642241;84;21070;-82
2021/11/10 09:52:46;;;;;;;3.90;2.67;;;;;;;0.93;100.00;103087.17;1694004;83;21085;-82
2021/11/10 09:55:17;;;;;;;4.70;2.70;;;;;;;0.85;100.00;103087.11;1694580;83;21558;-82
2021/11/10 09:57:47;;;;;;;3.55;2.55;;;;;;;0.83;100.00;103086.67;1690376;84;21182;-82
2021/11/10 10:00:19;;;;;;;4.87;2.50;;;;;;;0.83;100.00;103090.12;1688791;84;21034;-80
2021/11/10 10:02:48;;;;;;;4.33;2.90;;;;;;;0.87;100.00;103099.53;1684798;84;21018;-81
2021/11/10 10:05:19;;;;;;;32.17;21.70;;;;;;;0.89;100.00;103095.68;1659996;85;21181;-80
2021/11/10 10:07:49;;;;;;;;;;;;;;;0.91;100.00;103096.15;1663359;85;21613;-83
2021/11/10 10:10:16;;;;;;;6.20;4.37;;;;;;;0.93;100.00;103090.58;1682593;85;21129;-82
2021/11/10 10:12:43;;;;;;;3.83;2.75;;;;;;;0.99;100.00;103094.05;1685528;85;21043;-84
2021/11/10 10:15:11;;;;;;;3.90;2.60;;;;;;;1.01;100.00;103090.63;1685699;85;21054;-82
2021/11/10 10:17:43;;;;;;;4.12;3.42;;;;;;;1.01;100.00;103089.75;1685395;84;21113;-81
2021/11/10 10:20:37;;;;;;;8.73;5.00;;;;;;;1.03;100.00;103090.22;1685593;84;21575;-82
2021/11/10 10:23:09;;;;;;;7.35;4.20;;;;;;;1.14;100.00;103097.09;1685758;84;21859;-81
2021/11/10 10:25:44;;;;;;;11.35;4.50;;;;;;;1.18;100.00;103105.25;1659852;85;21450;-81
2021/11/10 10:28:20;;;;;;;4.47;2.87;;;;;;;1.18;100.00;103098.39;1637485;85;21085;-82
2021/11/10 10:30:52;;;;;;;3.42;2.90;;;;;;;1.20;100.00;103094.13;1684380;85;21093;-82
2021/11/10 10:33:27;;;;;;;3.27;2.77;;;;;;;1.25;100.00;103094.15;1658798;85;21472;-83
2021/11/10 10:36:00;;;;;;;7.20;3.25;;;;;;;1.23;100.00;103098.00;1686006;85;21590;-81
2021/11/10 10:38:35;;;;;;;4.62;3.10;;;;;;;1.19;100.00;103087.72;1685444;84;21070;-82
2021/11/10 10:41:05;;;;;;;3.80;2.92;;;;;;;1.14;100.00;103091.55;1682915;84;21120;-82
2021/11/10 10:43:44;;;;;;;4.35;3.12;;;;;;;1.09;100.00;103099.22;1661824;84;21140;-82
2021/11/10 10:46:11;;;;;;;5.50;3.67;;;;;;;1.09;100.00;103085.52;1662229;84;21076;-82
2021/11/10 10:48:38;;;;;;;4.08;3.00;;;;;;;1.10;100.00;103098.78;1689743;84;21105;-82
2021/11/10 10:51:10;;;;;;;3.05;2.70;;;;;;;1.17;100.00;103086.41;1689479;83;21097;-83
2021/11/10 10:53:46;;;;;;;3.67;3.15;;;;;;;1.22;100.00;103082.16;1686426;83;21124;-82
2021/11/10 10:56:30;;;;;;;4.35;3.17;;;;;;;1.25;100.00;103086.45;1689497;84;21089;-83
2021/11/10 10:59:10;;;;;;;4.22;3.40;;;;;;;1.25;100.00;103090.30;1707592;82;21096;-82
2021/11/10 11:01:51;;;;;;;4.25;3.50;;;;;;;1.21;100.00;103088.15;1707989;82;21840;-82
2021/11/10 11:04:22;;;;;;;5.15;3.08;;;;;;;1.19;100.00;103091.13;1687274;83;21026;-81
2021/11/10 11:07:07;;;;;;;3.47;2.85;;;;;;;1.23;100.00;103087.73;1690433;84;21086;-81
2021/11/10 11:09:52;;;;;;;5.53;3.42;;;;;;;1.26;100.00;103101.84;1685929;83;20994;-82
2021/11/10 11:12:32;;;;;;;4.70;3.58;;;;;;;1.26;100.00;103094.59;1662801;84;21042;-81
2021/11/10 11:17:53;;;;;;;5.95;3.70;;;;;;;1.28;100.00;103090.73;1690402;83;21176;-81
2021/11/10 11:20:30;;;;;;;4.65;3.45;;;;;;;1.28;100.00;103088.16;1690081;83;21054;-80
2021/11/10 11:22:59;;;;;;;4.67;3.45;;;;;;;1.26;100.00;103083.03;1688586;84;21586;-81
2021/11/10 11:25:31;;;;;;;5.85;3.90;;;;;;;1.21;100.00;103085.58;1690110;83;21642;-82
2021/11/10 11:28:04;;;;;;;4.37;3.95;;;;;;;1.19;100.00;103077.01;1689907;83;21530;-82
2021/11/10 11:30:40;;;;;;;4.95;3.92;;;;;;;1.17;100.00;103073.57;1689911;83;21207;-81
2021/11/10 11:33:16;;;;;;;7.65;4.17;;;;;;;1.15;100.00;103071.45;1690409;83;21599;-82